ドーハ の空港の天気 - METARとTAF

ドーハ国際空港 ( OTBD / DOH ) - カタール ドーハ
飛行場実況気象(Metar)
観測時間06/19 19:30 AST (06/19 16:30 UTC)
風向・風速北 4m/s
視程10km以上
天気現象
なし
気温34℃
湿度53%
気圧1000hPa
METAROTBD 191630Z AUTO 36007KT CAVOK 34/23 Q1000 NOSIG
過去の天気等 Google飛行場航空写真 Wunderground天気予報

過去48時間のMETAR

飛行場予報(TAF)
発表時間: 6/19 13:42 AST (6/19 10:42 UTC)
予報対象時間: 19日15時 AST ~ 20日21時 AST
風向・風速北北東 8m/s
視程8000m
なし
19日20時 AST ~ 19日22時 AST に徐々に
風向・風速北西 5m/s
TAF OTBD 191042Z 1912/2018 02016KT 8000 NSC
BECMG 1917/1919 32010KT